Time;durP1;ratioP1;P1;durP2;ratioP2;P2;SDS_P1;SDS_P2;PMS_P1;PMS_P2;Temp;Humidity;BMP_temperature;BMP_pressure;BME280_temperature;BME280_humidity;BME280_pressure;Samples;Min_cycle;Max_cycle;Signal;HPM_P1;HPM_P2
2021/04/15 00:00:19;;;;;;;2.53;2.22;;;;;;;-0.20;71.34;100425.13;2003103;80;20821;-76
2021/04/15 00:03:25;;;;;;;2.86;2.11;;;;;;;-0.21;71.22;100423.38;1998612;81;20746;-76
2021/04/15 00:06:30;;;;;;;3.00;2.30;;;;;;;-0.20;71.07;100422.56;1999663;81;20476;-76
2021/04/15 00:09:31;;;;;;;2.10;1.89;;;;;;;-0.21;70.95;100420.81;1999371;81;20389;-76
2021/04/15 00:12:33;;;;;;;2.66;2.14;;;;;;;-0.22;71.04;100418.19;1999735;81;20464;-75
2021/04/15 00:15:34;;;;;;;3.47;2.15;;;;;;;-0.26;71.27;100422.25;1999229;77;23707;-76
2021/04/15 00:18:37;;;;;;;2.92;2.05;;;;;;;-0.36;71.54;100420.88;2003961;80;20427;-76
2021/04/15 00:21:39;;;;;;;2.51;2.24;;;;;;;-0.47;71.48;100416.84;2004799;80;20335;-75
2021/04/15 00:24:41;;;;;;;4.09;1.84;;;;;;;-0.51;71.29;100414.94;2003919;80;20319;-75
2021/04/15 00:27:42;;;;;;;2.45;2.11;;;;;;;-0.54;71.24;100414.72;2005178;80;20342;-76
2021/04/15 00:30:45;;;;;;;2.76;1.91;;;;;;;-0.59;70.96;100420.38;2002097;78;20360;-76
2021/04/15 00:33:46;;;;;;;3.29;2.17;;;;;;;-0.59;70.85;100407.63;1999159;81;20335;-75
2021/04/15 00:36:48;;;;;;;2.65;1.81;;;;;;;-0.67;71.24;100413.19;1998635;81;20340;-75
2021/04/15 00:39:50;;;;;;;3.36;2.09;;;;;;;-0.68;71.24;100406.31;1999313;80;20787;-76
2021/04/15 00:42:52;;;;;;;3.42;2.15;;;;;;;-0.68;71.17;100406.31;1999542;81;20338;-75
2021/04/15 00:45:55;;;;;;;4.65;2.22;;;;;;;-0.68;71.46;100408.00;1999449;78;21342;-75
2021/04/15 00:48:57;;;;;;;3.67;1.84;;;;;;;-0.76;71.40;100401.56;2004592;80;20345;-76
2021/04/15 00:52:06;;;;;;;3.64;2.12;;;;;;;-0.81;71.60;100398.78;2004755;80;20954;-75
2021/04/15 00:55:12;;;;;;;4.32;1.88;;;;;;;-0.91;71.67;100399.91;2004511;80;20230;-76
2021/04/15 00:58:15;;;;;;;2.14;1.80;;;;;;;-0.96;71.95;100395.34;2008064;80;20164;-76
2021/04/15 01:01:18;;;;;;;3.66;1.75;;;;;;;-0.99;72.32;100395.16;2001601;78;23845;-76
2021/04/15 01:04:21;;;;;;;3.63;1.67;;;;;;;-1.01;72.14;100394.22;1999736;81;20328;-76
2021/04/15 01:07:23;;;;;;;2.92;1.95;;;;;;;-1.08;72.13;100395.50;1999340;81;20181;-75
2021/04/15 01:10:29;;;;;;;2.24;2.01;;;;;;;-1.10;72.20;100393.66;1999520;81;21215;-75
2021/04/15 01:13:52;;;;;;;3.13;1.76;;;;;;;-1.14;72.19;100397.72;1999413;81;20802;-76
2021/04/15 01:17:05;;;;;;;4.97;2.01;;;;;;;-1.16;72.07;100395.88;2002383;80;20663;-76
2021/04/15 01:20:22;;;;;;;2.25;2.05;;;;;;;-1.15;72.63;100400.16;2005169;80;20356;-76
2021/04/15 01:23:37;;;;;;;3.22;2.19;;;;;;;-1.20;72.94;100387.16;2004415;80;20344;-75
2021/04/15 01:26:59;;;;;;;3.38;2.09;;;;;;;-1.18;73.11;100397.44;2004802;80;21022;-75
2021/04/15 01:30:34;;;;;;;2.01;1.74;;;;;;;-1.24;73.04;100391.22;2004956;80;20345;-76
2021/04/15 01:33:43;;;;;;;1.83;1.64;;;;;;;-1.25;72.77;100394.56;1999112;81;20217;-75
2021/04/15 01:36:56;;;;;;;2.24;1.80;;;;;;;-1.26;72.46;100386.78;1999985;81;20221;-75
2021/04/15 01:40:21;;;;;;;2.16;1.83;;;;;;;-1.27;72.23;100393.56;1999631;80;20316;-75
2021/04/15 01:43:31;;;;;;;3.03;2.15;;;;;;;-1.30;72.41;100384.88;2000045;81;20323;-77
2021/04/15 01:46:38;;;;;;;2.24;2.06;;;;;;;-1.31;72.47;100394.19;2001581;78;21363;-75
2021/04/15 01:49:43;;;;;;;2.25;1.88;;;;;;;-1.34;72.82;100386.34;2004872;80;20173;-75
2021/04/15 01:52:49;;;;;;;3.59;2.63;;;;;;;-1.39;72.81;100381.78;2004894;80;20331;-75
2021/04/15 01:55:56;;;;;;;3.56;2.11;;;;;;;-1.41;73.14;100383.38;2004572;80;20672;-76
2021/04/15 01:59:20;;;;;;;5.29;2.47;;;;;;;-1.45;73.32;100378.88;2005287;80;20173;-76
2021/04/15 02:02:30;;;;;;;2.33;2.17;;;;;;;-1.47;73.40;100385.53;2000461;78;20360;-76
2021/04/15 02:05:38;;;;;;;3.72;2.60;;;;;;;-1.50;73.19;100382.81;2000388;80;20207;-75
2021/04/15 02:08:44;;;;;;;3.03;2.53;;;;;;;-1.53;73.00;100381.84;2000625;81;20660;-75
2021/04/15 02:11:52;;;;;;;3.78;2.77;;;;;;;-1.51;73.21;100371.75;2000944;81;20239;-75
2021/04/15 02:15:03;;;;;;;5.44;2.46;;;;;;;-1.48;73.57;100376.16;2000601;81;20199;-75
2021/04/15 02:18:08;;;;;;;2.76;2.19;;;;;;;-1.50;73.73;100377.72;1996027;78;30558;-75
2021/04/15 02:21:36;;;;;;;4.00;2.22;;;;;;;-1.56;74.06;100385.88;1996296;81;20226;-75
2021/04/15 02:24:53;;;;;;;2.13;2.03;;;;;;;-1.56;74.24;100389.31;1995910;81;20190;-75
2021/04/15 02:28:23;;;;;;;2.46;2.26;;;;;;;-1.60;74.00;100383.97;1995753;81;20208;-75
2021/04/15 02:31:44;;;;;;;2.80;2.60;;;;;;;-1.63;74.08;100384.63;2000011;78;21991;-75
2021/04/15 02:34:52;;;;;;;2.83;2.50;;;;;;;-1.67;74.26;100385.22;2006566;80;20215;-75
2021/04/15 02:37:58;;;;;;;2.44;2.24;;;;;;;-1.68;74.36;100391.13;2006581;80;20191;-75
2021/04/15 02:41:03;;;;;;;2.69;2.47;;;;;;;-1.71;73.89;100384.97;2006487;80;20287;-75
2021/04/15 02:44:10;;;;;;;3.24;2.90;;;;;;;-1.73;74.14;100386.53;2006249;80;20169;-75
2021/04/15 02:47:17;;;;;;;2.84;2.43;;;;;;;-1.74;74.24;100383.13;2001642;78;23190;-75
2021/04/15 02:50:22;;;;;;;3.27;2.77;;;;;;;-1.75;74.34;100383.03;2001451;81;20189;-76
2021/04/15 02:53:40;;;;;;;3.67;3.30;;;;;;;-1.83;74.32;100383.44;2000974;80;20205;-74
2021/04/15 02:56:54;;;;;;;3.04;2.69;;;;;;;-1.79;74.76;100387.06;2000963;81;20844;-75
2021/04/15 03:00:03;;;;;;;3.08;2.78;;;;;;;-1.83;74.69;100385.97;2001356;81;20316;-75
2021/04/15 03:03:09;;;;;;;3.42;2.38;;;;;;;-1.81;75.01;100391.16;1994438;79;27113;-75
2021/04/15 03:06:18;;;;;;;4.31;2.55;;;;;;;-1.86;75.14;100390.88;1994513;81;20604;-75
2021/04/15 03:09:22;;;;;;;3.04;2.78;;;;;;;-1.88;75.17;100391.59;1994742;81;20400;-75
2021/04/15 03:12:29;;;;;;;2.51;2.31;;;;;;;-1.92;75.11;100387.97;1994265;81;20322;-75
2021/04/15 03:15:36;;;;;;;3.17;2.11;;;;;;;-1.93;75.37;100390.44;1993287;78;20741;-75
2021/04/15 03:18:46;;;;;;;3.27;2.86;;;;;;;-1.97;75.04;100385.94;1994011;81;20190;-75
2021/04/15 03:22:00;;;;;;;2.89;2.40;;;;;;;-1.99;75.50;100387.50;1995077;81;20667;-74
2021/04/15 03:25:03;;;;;;;3.43;2.43;;;;;;;-2.00;75.42;100384.06;1994635;81;20325;-74
2021/04/15 03:28:15;;;;;;;4.34;2.54;;;;;;;-1.99;75.40;100382.41;1994531;81;20301;-75
2021/04/15 03:31:24;;;;;;;2.76;2.40;;;;;;;-2.03;75.19;100386.44;1994732;78;51119;-74
2021/04/15 03:34:35;;;;;;;5.72;2.46;;;;;;;-2.09;75.26;100392.81;1999025;80;21003;-74
2021/04/15 03:38:01;;;;;;;2.92;2.35;;;;;;;-2.10;75.21;100388.53;1999361;81;20655;-74
2021/04/15 03:41:13;;;;;;;2.29;2.00;;;;;;;-2.11;75.16;100389.31;1998623;81;20334;-74
2021/04/15 03:44:15;;;;;;;2.91;2.46;;;;;;;-2.16;75.32;100389.00;1999398;80;20239;-74
2021/04/15 03:47:29;;;;;;;3.30;2.29;;;;;;;-2.18;75.29;100391.44;1995131;77;20277;-74
2021/04/15 03:50:53;;;;;;;3.36;2.79;;;;;;;-2.20;75.38;100389.59;1993825;81;20437;-74
2021/04/15 03:54:12;;;;;;;2.54;2.34;;;;;;;-2.22;75.50;100398.81;1993503;81;20190;-74
2021/04/15 03:57:20;;;;;;;4.95;2.40;;;;;;;-2.26;75.44;100391.78;1994781;81;20629;-74
2021/04/15 04:00:38;;;;;;;3.54;2.74;;;;;;;-2.31;75.39;100394.03;1993419;78;21581;-74
2021/04/15 04:03:42;;;;;;;3.67;3.00;;;;;;;-2.34;75.54;100395.47;1994076;81;20218;-74
2021/04/15 04:06:47;;;;;;;3.29;2.99;;;;;;;-2.37;75.64;100395.28;1994572;81;20426;-73
2021/04/15 04:10:14;;;;;;;4.19;2.78;;;;;;;-2.39;75.58;100404.50;1996731;81;20215;-73
2021/04/15 04:13:37;;;;;;;3.33;3.03;;;;;;;-2.39;75.60;100397.75;1995786;81;20198;-73
2021/04/15 04:16:42;;;;;;;2.93;2.60;;;;;;;-2.41;75.60;100404.41;1998764;78;20210;-73
2021/04/15 04:19:48;;;;;;;3.07;2.78;;;;;;;-2.40;75.56;100403.63;2001383;81;20680;-73
2021/04/15 04:22:59;;;;;;;3.42;2.90;;;;;;;-2.40;75.77;100398.53;2001306;81;20243;-73
2021/04/15 04:26:16;;;;;;;3.33;2.84;;;;;;;-2.39;75.82;100401.94;2001474;81;20408;-73
2021/04/15 04:29:35;;;;;;;3.33;3.07;;;;;;;-2.42;75.78;100397.56;2001581;81;20218;-75
2021/04/15 04:32:38;;;;;;;3.41;3.08;;;;;;;-2.45;75.86;100398.25;1996331;78;20643;-73
2021/04/15 04:35:44;;;;;;;3.91;3.44;;;;;;;-2.45;75.83;100398.25;1996751;81;20190;-74
2021/04/15 04:38:47;;;;;;;4.01;3.60;;;;;;;-2.45;75.82;100405.00;1996331;81;20282;-73
2021/04/15 04:42:00;;;;;;;5.11;3.39;;;;;;;-2.46;75.97;100404.13;1996279;81;20219;-73
2021/04/15 04:45:03;;;;;;;3.54;3.18;;;;;;;-2.49;75.98;100409.03;1995800;81;20311;-73
2021/04/15 04:48:12;;;;;;;3.88;3.18;;;;;;;-2.53;75.80;100411.25;2000610;78;20229;-73
2021/04/15 04:51:17;;;;;;;6.00;3.51;;;;;;;-2.52;76.12;100413.00;2001377;80;20174;-73
2021/04/15 04:54:20;;;;;;;4.10;3.46;;;;;;;-2.54;76.27;100415.44;2001110;81;21008;-73
2021/04/15 04:57:38;;;;;;;3.90;3.37;;;;;;;-2.53;75.97;100419.75;2001348;81;20331;-73
2021/04/15 05:00:46;;;;;;;3.77;3.47;;;;;;;-2.47;76.13;100426.91;1999517;78;20254;-73
2021/04/15 05:03:48;;;;;;;4.63;3.77;;;;;;;-2.48;76.11;100432.78;1996084;81;20665;-73
2021/04/15 05:06:50;;;;;;;4.38;3.47;;;;;;;-2.47;76.20;100427.78;1995883;81;20982;-72
2021/04/15 05:09:53;;;;;;;4.60;3.97;;;;;;;-2.44;76.17;100430.53;1994588;81;20179;-73
2021/04/15 05:13:21;;;;;;;4.41;3.59;;;;;;;-2.39;76.27;100429.94;1993639;81;20178;-73
2021/04/15 05:16:27;;;;;;;4.37;3.72;;;;;;;-2.35;76.24;100431.88;1995292;78;20699;-73
2021/04/15 05:19:30;;;;;;;4.87;3.78;;;;;;;-2.32;76.29;100432.97;1999136;81;20774;-73
2021/04/15 05:22:40;;;;;;;4.44;3.37;;;;;;;-2.28;76.06;100427.28;1998852;81;20232;-73
2021/04/15 05:26:00;;;;;;;5.46;3.97;;;;;;;-2.25;76.42;100440.19;1996740;81;20215;-73
2021/04/15 05:29:05;;;;;;;3.97;3.59;;;;;;;-2.20;76.69;100437.94;1997176;81;20224;-73
2021/04/15 05:32:11;;;;;;;4.63;4.10;;;;;;;-2.15;77.46;100439.13;1995582;78;20315;-73
2021/04/15 05:35:19;;;;;;;5.07;4.26;;;;;;;-2.02;77.03;100436.53;1997248;81;20316;-74
2021/04/15 05:38:21;;;;;;;6.50;4.77;;;;;;;-1.90;76.96;100446.59;1997948;81;20186;-73
2021/04/15 05:41:34;;;;;;;6.33;4.87;;;;;;;-1.84;77.21;100450.41;1998336;81;20216;-73
2021/04/15 05:44:44;;;;;;;5.92;4.88;;;;;;;-1.78;77.53;100439.72;1997301;81;21052;-73
2021/04/15 05:47:52;;;;;;;6.50;4.59;;;;;;;-1.66;77.95;100440.47;1992377;78;22283;-74
2021/04/15 05:50:56;;;;;;;7.09;4.97;;;;;;;-1.50;78.11;100452.44;1993242;81;20310;-73
2021/04/15 05:54:05;;;;;;;6.66;5.06;;;;;;;-1.35;78.27;100453.38;1992868;81;20599;-73
2021/04/15 05:57:11;;;;;;;5.97;4.74;;;;;;;-0.99;77.95;100448.69;1992817;81;20171;-72
2021/04/15 06:00:17;;;;;;;6.34;4.94;;;;;;;-0.46;76.54;100448.34;1992437;78;22820;-72
2021/04/15 06:03:44;;;;;;;6.86;4.38;;;;;;;-0.11;75.64;100451.16;2000840;80;20342;-72
2021/04/15 06:06:46;;;;;;;8.55;5.15;;;;;;;0.25;74.72;100444.63;1997610;81;20326;-73
2021/04/15 06:09:49;;;;;;;5.44;4.44;;;;;;;0.62;73.46;100448.25;1997779;80;20342;-72
2021/04/15 06:13:10;;;;;;;4.97;4.30;;;;;;;0.90;72.31;100443.75;1997867;81;20354;-73
2021/04/15 06:16:44;;;;;;;5.60;4.38;;;;;;;1.26;71.42;100443.81;1996765;78;22643;-73
2021/04/15 06:19:55;;;;;;;4.13;3.72;;;;;;;1.76;69.87;100446.28;1990999;81;20317;-74
2021/04/15 06:23:02;;;;;;;5.29;4.47;;;;;;;2.19;68.85;100445.72;1993414;81;21621;-74
2021/04/15 06:26:05;;;;;;;6.46;4.26;;;;;;;2.58;68.01;100456.91;1993197;81;20339;-74
2021/04/15 06:29:17;;;;;;;6.80;5.03;;;;;;;3.20;66.71;100439.06;1993537;81;20310;-73
2021/04/15 06:32:25;;;;;;;5.21;4.71;;;;;;;3.66;65.09;100451.25;1996394;77;21557;-74
2021/04/15 06:35:31;;;;;;;8.85;4.75;;;;;;;4.08;63.89;100446.91;1997714;80;20536;-77
2021/04/15 06:38:57;;;;;;;5.11;4.29;;;;;;;4.57;63.08;100443.59;2002364;80;20195;-73
2021/04/15 06:42:10;;;;;;;6.26;4.51;;;;;;;4.84;61.44;100447.16;1998330;80;20813;-73
2021/04/15 06:45:47;;;;;;;5.19;4.05;;;;;;;5.43;60.54;100445.75;2001633;80;20348;-74
2021/04/15 06:49:09;;;;;;;4.38;3.50;;;;;;;5.67;59.79;100444.81;2000144;80;21342;-73
2021/04/15 06:52:34;;;;;;;4.14;3.65;;;;;;;5.91;58.95;100439.56;1997927;80;20864;-74
2021/04/15 06:55:44;;;;;;;4.72;3.94;;;;;;;6.13;57.96;100438.56;1998497;80;20367;-73
2021/04/15 06:59:31;;;;;;;4.38;3.65;;;;;;;6.38;57.45;100448.75;1998249;81;20648;-73
2021/04/15 07:02:51;;;;;;;4.85;3.63;;;;;;;6.56;57.06;100445.81;2002019;77;20340;-75
2021/04/15 07:05:58;;;;;;;3.97;3.51;;;;;;;6.73;55.65;100443.72;2002609;80;20378;-75
2021/04/15 07:09:00;;;;;;;4.36;3.53;;;;;;;6.86;55.45;100441.53;2003002;80;20226;-75
2021/04/15 07:12:27;;;;;;;5.38;3.44;;;;;;;6.94;55.14;100442.59;2003428;80;20240;-74
2021/04/15 07:15:58;;;;;;;3.34;3.06;;;;;;;7.08;54.62;100435.22;2000352;78;21066;-75
2021/04/15 07:19:12;;;;;;;3.61;2.97;;;;;;;7.27;54.33;100436.56;1993182;81;20225;-74
2021/04/15 07:22:51;;;;;;;5.09;3.11;;;;;;;7.55;53.87;100443.31;1994583;81;20947;-74
2021/04/15 07:26:24;;;;;;;3.03;2.63;;;;;;;7.73;52.97;100435.16;1992645;81;20175;-75
2021/04/15 07:30:04;;;;;;;3.21;2.76;;;;;;;7.96;52.43;100440.84;1996775;81;20216;-75
2021/04/15 07:33:16;;;;;;;3.14;2.38;;;;;;;8.21;52.22;100437.06;1991002;78;23348;-75
2021/04/15 07:36:34;;;;;;;3.64;2.55;;;;;;;8.52;51.73;100436.06;1990964;81;20339;-74
2021/04/15 07:40:09;;;;;;;3.53;2.84;;;;;;;8.67;50.51;100433.78;1991578;81;20203;-75
2021/04/15 07:43:37;;;;;;;2.41;1.79;;;;;;;8.72;50.40;100434.75;1991328;81;20229;-75
2021/04/15 07:47:04;;;;;;;3.70;2.04;;;;;;;8.89;49.98;100429.88;1993386;78;20252;-75
2021/04/15 07:50:23;;;;;;;2.97;2.15;;;;;;;9.15;49.51;100431.22;1996418;81;20244;-74
2021/04/15 07:53:28;;;;;;;2.10;1.90;;;;;;;9.35;48.43;100429.88;1996445;81;20198;-75
2021/04/15 07:56:44;;;;;;;2.24;1.90;;;;;;;9.39;48.18;100434.28;1995935;81;20733;-75
2021/04/15 07:59:55;;;;;;;3.41;1.73;;;;;;;9.61;47.49;100426.84;1996199;81;20686;-75
2021/04/15 08:03:29;;;;;;;2.76;1.60;;;;;;;10.04;46.91;100430.94;1994900;78;20190;-75
2021/04/15 08:06:56;;;;;;;3.06;1.26;;;;;;;10.21;46.18;100428.63;1988991;81;20362;-75
2021/04/15 08:10:27;;;;;;;5.15;2.45;;;;;;;10.65;45.39;100429.22;1997054;81;20166;-74
2021/04/15 08:13:42;;;;;;;2.50;1.44;;;;;;;11.01;44.44;100420.09;1996806;81;20252;-75
2021/04/15 08:17:03;;;;;;;1.85;1.58;;;;;;;11.17;44.35;100427.19;1998553;78;25143;-75
2021/04/15 08:20:35;;;;;;;3.71;1.34;;;;;;;11.43;43.31;100425.69;2001714;81;20170;-75
2021/04/15 08:23:57;;;;;;;4.21;1.30;;;;;;;11.93;42.99;100430.44;1998796;81;20207;-75
2021/04/15 08:27:07;;;;;;;0.81;0.81;;;;;;;12.01;40.98;100427.88;1998177;81;20564;-74
2021/04/15 08:30:37;;;;;;;4.60;1.38;;;;;;;12.14;40.60;100421.91;1997223;81;20247;-74
2021/04/15 08:33:57;;;;;;;1.40;1.30;;;;;;;12.36;39.53;100423.75;1993730;81;20670;-75
2021/04/15 08:37:22;;;;;;;2.11;1.11;;;;;;;12.15;39.37;100420.16;1992284;81;20320;-74
2021/04/15 08:40:40;;;;;;;1.85;1.08;;;;;;;11.64;38.99;100429.31;1991826;81;20192;-75
2021/04/15 08:44:10;;;;;;;2.00;1.08;;;;;;;11.64;41.05;100424.09;1992793;81;20240;-76
2021/04/15 08:47:59;;;;;;;5.64;1.48;;;;;;;11.85;40.13;100432.13;1994701;80;22111;-74
2021/04/15 08:51:35;;;;;;;2.14;1.00;;;;;;;12.40;39.86;100419.44;1997074;81;20630;-75
2021/04/15 08:54:47;;;;;;;2.41;1.17;;;;;;;12.84;39.58;100422.19;1997550;81;20198;-75
2021/04/15 08:58:20;;;;;;;3.10;1.40;;;;;;;13.04;38.44;100422.25;1997796;81;20173;-75
2021/04/15 09:01:43;;;;;;;2.13;1.04;;;;;;;13.15;37.56;100417.94;1994685;78;29332;-74
2021/04/15 09:05:16;;;;;;;1.08;0.90;;;;;;;13.21;36.63;100419.72;1992592;81;20628;-74
2021/04/15 09:08:24;;;;;;;1.74;0.91;;;;;;;12.84;36.05;100422.19;1992330;81;20187;-74
2021/04/15 09:11:56;;;;;;;1.34;0.91;;;;;;;11.95;37.97;100426.13;1991846;81;20766;-74
2021/04/15 09:15:14;;;;;;;0.80;0.80;;;;;;;11.56;38.83;100433.59;1991915;81;20206;-74
2021/04/15 09:18:36;;;;;;;1.73;0.80;;;;;;;11.00;39.02;100429.59;1992596;78;23425;-74
2021/04/15 09:21:38;;;;;;;2.44;1.00;;;;;;;10.65;39.47;100437.00;1992796;81;20212;-74
2021/04/15 09:24:56;;;;;;;1.36;0.90;;;;;;;10.33;39.86;100431.41;1992733;81;20227;-74
2021/04/15 09:28:13;;;;;;;1.73;0.85;;;;;;;9.97;40.15;100424.81;1991902;81;20210;-74
2021/04/15 09:31:24;;;;;;;0.75;0.73;;;;;;;9.79;40.44;100423.66;1991013;78;37407;-73
2021/04/15 09:35:22;;;;;;;1.91;0.70;;;;;;;9.40;41.02;100427.38;1992592;80;20170;-73
2021/04/15 09:38:41;;;;;;;1.00;0.82;;;;;;;8.98;41.36;100430.94;1991838;81;20212;-73
2021/04/15 09:41:53;;;;;;;1.22;0.73;;;;;;;8.77;41.86;100422.75;1994768;81;20187;-73
2021/04/15 09:45:17;;;;;;;1.35;0.76;;;;;;;9.20;42.43;100424.44;1997624;81;20231;-73
2021/04/15 09:48:51;;;;;;;0.70;0.70;;;;;;;9.42;40.82;100414.44;1999820;81;20204;-73
2021/04/15 09:52:12;;;;;;;0.60;0.59;;;;;;;9.63;41.48;100418.22;1999659;80;20208;-73
2021/04/15 09:55:45;;;;;;;0.76;0.60;;;;;;;9.59;40.40;100413.84;1999664;81;20178;-73
2021/04/15 09:59:17;;;;;;;2.86;0.60;;;;;;;9.29;38.87;100416.81;2000027;81;20182;-74
2021/04/15 10:02:34;;;;;;;0.95;0.65;;;;;;;9.30;40.00;100420.25;2002086;77;22247;-73
2021/04/15 10:05:48;;;;;;;2.09;0.70;;;;;;;9.88;40.22;100416.03;2004708;80;20235;-73
2021/04/15 10:08:56;;;;;;;0.61;0.50;;;;;;;10.49;39.45;100411.69;2004523;80;20282;-73
2021/04/15 10:12:27;;;;;;;0.95;0.56;;;;;;;11.09;37.95;100410.63;2005389;80;20270;-74
2021/04/15 10:15:47;;;;;;;1.06;0.40;;;;;;;12.04;37.05;100409.69;2002821;78;20675;-74
2021/04/15 10:19:33;;;;;;;0.50;0.50;;;;;;;12.67;35.75;100403.91;1995162;81;20208;-74
2021/04/15 10:22:53;;;;;;;1.29;0.40;;;;;;;13.07;34.22;100406.59;1993965;81;20723;-74
2021/04/15 10:25:56;;;;;;;2.00;0.54;;;;;;;13.29;33.45;100395.38;1994141;81;20187;-74
2021/04/15 10:29:03;;;;;;;1.83;0.63;;;;;;;13.34;32.43;100387.56;1994313;81;20174;-76
2021/04/15 10:32:39;;;;;;;2.65;0.52;;;;;;;13.96;31.50;100388.34;1990079;78;23072;-74
2021/04/15 10:36:05;;;;;;;0.49;0.41;;;;;;;14.45;30.76;100382.16;1988927;81;20183;-74
2021/04/15 10:39:44;;;;;;;1.02;0.50;;;;;;;14.72;29.36;100383.78;1989606;81;20171;-74
2021/04/15 10:43:19;;;;;;;1.14;0.70;;;;;;;14.73;30.38;100377.66;1988300;81;20559;-74
2021/04/15 10:46:32;;;;;;;3.64;0.61;;;;;;;14.76;30.37;100369.81;1987438;78;21417;-74
2021/04/15 10:49:53;;;;;;;0.73;0.50;;;;;;;15.02;30.29;100374.84;1991255;81;20221;-73
2021/04/15 10:53:04;;;;;;;0.70;0.56;;;;;;;15.26;29.91;100367.69;1991453;81;20192;-74
2021/04/15 10:56:30;;;;;;;0.66;0.50;;;;;;;14.98;28.74;100372.28;1990810;81;20501;-73
2021/04/15 10:59:36;;;;;;;1.52;0.50;;;;;;;14.77;29.65;100368.91;1991119;81;20210;-73
2021/04/15 11:02:54;;;;;;;0.40;0.40;;;;;;;14.21;28.34;100364.78;1995171;78;20738;-73
2021/04/15 11:05:58;;;;;;;1.32;0.68;;;;;;;13.44;28.74;100364.94;1995716;81;20252;-73
2021/04/15 11:09:27;;;;;;;1.21;0.60;;;;;;;13.63;30.52;100360.56;1996523;81;20174;-73
2021/04/15 11:12:30;;;;;;;;;;;;;;;13.45;30.62;100358.84;1995038;81;20833;-73
2021/04/15 11:15:59;;;;;;;1.74;0.70;;;;;;;13.44;32.35;100357.97;1992912;77;20239;-73
2021/04/15 11:19:11;;;;;;;1.95;0.59;;;;;;;13.24;29.60;100365.81;1994316;81;21258;-74
2021/04/15 11:22:27;;;;;;;0.76;0.44;;;;;;;12.88;29.46;100358.78;1994774;81;20219;-73
2021/04/15 11:25:40;;;;;;;1.29;0.50;;;;;;;12.20;29.80;100351.63;1993937;81;20619;-73
2021/04/15 11:28:42;;;;;;;1.36;0.50;;;;;;;11.94;30.13;100356.72;1995153;81;20334;-72
2021/04/15 11:31:47;;;;;;;1.51;0.45;;;;;;;11.58;29.96;100356.44;1996294;78;22087;-73
2021/04/15 11:35:06;;;;;;;1.36;0.40;;;;;;;11.16;30.32;100350.06;1998291;81;20201;-73
2021/04/15 11:38:15;;;;;;;1.95;0.80;;;;;;;10.60;30.46;100355.56;1999212;81;20211;-73
2021/04/15 11:41:28;;;;;;;1.26;0.60;;;;;;;10.88;32.85;100343.72;1999157;81;20193;-73
2021/04/15 11:44:55;;;;;;;0.60;0.60;;;;;;;11.42;33.39;100343.31;1999752;81;21206;-73
2021/04/15 11:48:29;;;;;;;0.74;0.50;;;;;;;11.24;32.15;100337.97;1993733;78;54890;-72
2021/04/15 11:52:00;;;;;;;1.09;0.50;;;;;;;10.89;32.81;100333.34;1989900;81;20233;-74
2021/04/15 11:55:14;;;;;;;0.55;0.36;;;;;;;11.23;33.38;100331.03;1993343;81;20215;-73
2021/04/15 11:58:31;;;;;;;0.60;0.44;;;;;;;12.20;33.31;100322.09;1994735;81;20614;-74
2021/04/15 12:01:34;;;;;;;0.52;0.40;;;;;;;12.85;31.62;100311.88;1996218;78;25275;-74
2021/04/15 12:04:36;;;;;;;0.50;0.50;;;;;;;12.86;31.45;100311.00;2000000;81;20202;-74
2021/04/15 12:07:40;;;;;;;2.11;0.70;;;;;;;12.58;30.84;100320.53;1999609;81;20223;-74
2021/04/15 12:10:46;;;;;;;0.90;0.50;;;;;;;12.18;30.98;100327.31;1999433;81;20330;-74
2021/04/15 12:13:53;;;;;;;2.38;0.30;;;;;;;11.69;30.91;100324.44;1999450;81;20185;-74
2021/04/15 12:17:17;;;;;;;0.77;0.50;;;;;;;11.47;32.18;100325.16;1995688;80;21524;-74
2021/04/15 12:20:45;;;;;;;1.24;0.50;;;;;;;11.31;32.66;100337.19;1994752;81;20327;-74
2021/04/15 12:23:54;;;;;;;0.98;0.50;;;;;;;11.15;32.60;100330.13;1994380;81;20222;-74
2021/04/15 12:27:25;;;;;;;0.51;0.50;;;;;;;11.47;31.43;100319.94;1995015;81;20227;-74
2021/04/15 12:30:32;;;;;;;1.41;0.40;;;;;;;12.41;32.56;100309.19;1994370;78;20466;-74
2021/04/15 12:33:55;;;;;;;0.42;0.40;;;;;;;13.21;30.54;100312.78;1994391;81;20216;-74
2021/04/15 12:37:11;;;;;;;1.69;0.47;;;;;;;13.67;29.43;100302.28;1992429;81;20691;-74
2021/04/15 12:40:28;;;;;;;1.25;0.60;;;;;;;13.30;29.99;100323.22;1994421;81;20182;-74
2021/04/15 12:43:38;;;;;;;0.88;0.68;;;;;;;12.80;32.60;100318.81;1994285;81;20186;-74
2021/04/15 12:46:42;;;;;;;2.97;0.79;;;;;;;12.08;32.32;100326.41;1993806;77;21679;-73
2021/04/15 12:49:46;;;;;;;0.55;0.50;;;;;;;11.40;33.96;100331.19;1994832;81;20744;-73
2021/04/15 12:52:49;;;;;;;2.71;0.50;;;;;;;10.99;35.47;100328.25;1994244;81;20186;-73
2021/04/15 12:55:51;;;;;;;0.65;0.60;;;;;;;10.77;36.98;100329.75;1993910;81;20178;-73
2021/04/15 12:58:55;;;;;;;2.29;0.55;;;;;;;10.52;38.51;100334.69;1995056;81;20200;-73
2021/04/15 13:01:57;;;;;;;1.49;0.70;;;;;;;10.39;38.70;100325.03;1993693;78;21760;-73
2021/04/15 13:05:09;;;;;;;0.73;0.40;;;;;;;10.37;39.83;100318.94;1994081;81;20182;-74
2021/04/15 13:08:33;;;;;;;1.41;0.50;;;;;;;9.95;39.02;100311.50;1994341;81;20701;-75
2021/04/15 13:11:36;;;;;;;3.54;0.63;;;;;;;9.56;38.56;100304.91;1994161;81;21407;-74
2021/04/15 13:14:42;;;;;;;0.60;0.51;;;;;;;9.33;38.69;100295.91;1994261;81;20208;-74
2021/04/15 13:17:47;;;;;;;0.98;0.50;;;;;;;9.63;40.31;100292.91;1994782;78;20226;-75
2021/04/15 13:21:04;;;;;;;1.33;0.66;;;;;;;10.43;40.22;100290.47;1994317;81;20300;-75
2021/04/15 13:24:43;;;;;;;2.59;0.80;;;;;;;11.40;37.48;100280.03;1994647;81;20223;-75
2021/04/15 13:27:57;;;;;;;;;;;;;;;12.09;36.40;100267.41;1994722;81;20187;-75
2021/04/15 13:31:03;;;;;;;0.76;0.40;;;;;;;12.70;35.55;100263.19;1995349;78;20081;-75
2021/04/15 13:34:11;;;;;;;1.19;0.60;;;;;;;13.19;33.48;100258.03;1999104;81;20211;-75
2021/04/15 13:37:39;;;;;;;2.56;0.92;;;;;;;13.80;31.42;100263.09;1999263;81;20222;-76
2021/04/15 13:40:51;;;;;;;1.66;0.56;;;;;;;13.94;30.53;100270.00;2000039;81;20274;-75
2021/04/15 13:43:56;;;;;;;0.57;0.50;;;;;;;13.17;30.53;100275.38;1999587;81;20217;-75
2021/04/15 13:46:58;;;;;;;1.05;0.50;;;;;;;12.33;32.03;100298.72;1997129;78;20665;-74
2021/04/15 13:50:00;;;;;;;1.20;0.61;;;;;;;11.27;37.42;100290.34;1994978;81;20401;-73
2021/04/15 13:53:47;;;;;;;1.79;1.02;;;;;;;10.44;38.00;100284.44;1994126;81;20174;-73
2021/04/15 13:56:53;;;;;;;0.52;0.52;;;;;;;9.92;41.65;100275.13;1994406;81;20171;-74
2021/04/15 13:59:57;;;;;;;1.50;0.69;;;;;;;9.67;43.32;100284.31;1995378;81;20186;-74
2021/04/15 14:02:59;;;;;;;0.69;0.49;;;;;;;9.59;42.66;100276.44;1998939;78;20740;-74
2021/04/15 14:06:07;;;;;;;0.65;0.47;;;;;;;9.47;40.86;100268.47;2000089;81;20388;-73
2021/04/15 14:09:27;;;;;;;0.40;0.40;;;;;;;9.39;43.08;100275.28;2000432;80;20210;-73
2021/04/15 14:12:48;;;;;;;0.56;0.50;;;;;;;9.37;39.62;100264.91;2000171;80;20936;-73
2021/04/15 14:15:58;;;;;;;1.77;0.49;;;;;;;9.43;40.72;100258.91;1997217;78;20218;-74
2021/04/15 14:19:11;;;;;;;;;;;;;;;9.59;39.48;100252.22;1995197;81;20209;-73
2021/04/15 14:22:22;;;;;;;0.46;0.39;;;;;;;9.71;38.95;100244.63;1995093;81;20074;-74
2021/04/15 14:25:37;;;;;;;0.55;0.39;;;;;;;10.00;38.77;100244.97;1995558;81;20335;-74
2021/04/15 14:28:42;;;;;;;0.65;0.36;;;;;;;10.35;37.79;100234.13;1995218;81;20966;-74
2021/04/15 14:31:48;;;;;;;0.52;0.36;;;;;;;10.76;36.39;100235.34;1994507;78;25322;-74
2021/04/15 14:34:59;;;;;;;0.60;0.30;;;;;;;11.35;34.74;100228.88;1994984;81;20434;-73
2021/04/15 14:38:03;;;;;;;0.59;0.55;;;;;;;12.09;34.87;100224.03;1994794;81;20178;-73
2021/04/15 14:41:07;;;;;;;1.75;0.51;;;;;;;12.32;32.84;100224.06;1995206;81;20212;-74
2021/04/15 14:44:14;;;;;;;0.50;0.50;;;;;;;12.04;31.74;100227.50;1995123;81;20174;-74
2021/04/15 14:47:33;;;;;;;0.52;0.51;;;;;;;11.50;31.70;100221.16;1997444;78;21306;-73
2021/04/15 14:50:41;;;;;;;0.65;0.47;;;;;;;10.96;30.75;100214.75;2001018;80;20232;-73
2021/04/15 14:53:45;;;;;;;1.05;0.40;;;;;;;10.72;31.34;100215.41;2001265;81;20252;-73
2021/04/15 14:56:47;;;;;;;3.46;0.50;;;;;;;10.93;31.35;100206.03;2001382;81;20207;-73
2021/04/15 15:00:19;;;;;;;0.74;0.50;;;;;;;11.30;30.58;100204.56;2001503;81;20236;-73
2021/04/15 15:03:24;;;;;;;1.65;0.56;;;;;;;11.94;29.40;100205.75;1997748;81;20190;-73